createdAt,value
2018-11-01T00:00:28.522Z,0.00
2018-11-01T00:01:28.518Z,0.00
2018-11-01T00:02:28.499Z,0.00
2018-11-01T00:03:28.556Z,0.00
2018-11-01T00:04:28.478Z,0.00
2018-11-01T00:05:28.502Z,0.00
2018-11-01T00:06:28.460Z,0.00
2018-11-01T00:07:28.455Z,0.00
2018-11-01T00:08:28.470Z,0.00
2018-11-01T00:09:28.611Z,0.00
2018-11-01T00:10:28.421Z,0.00
2018-11-01T00:11:28.419Z,0.00
2018-11-01T00:12:28.405Z,0.00
2018-11-01T00:13:28.440Z,0.00
2018-11-01T00:14:28.383Z,0.00
2018-11-01T00:15:28.392Z,0.00
2018-11-01T00:16:28.377Z,0.00
2018-11-01T00:17:28.360Z,0.00
2018-11-01T00:18:28.361Z,0.00
2018-11-01T00:19:28.320Z,0.00
2018-11-01T00:20:28.313Z,0.00
2018-11-01T00:21:28.703Z,0.00
2018-11-01T00:22:30.430Z,0.00
2018-11-01T00:23:28.396Z,0.00
2018-11-01T00:24:37.041Z,0.00
2018-11-01T00:25:28.251Z,0.00
2018-11-01T00:26:28.285Z,0.00
2018-11-01T00:27:28.259Z,0.00
2018-11-01T00:28:28.224Z,0.00
2018-11-01T00:29:28.241Z,0.00
2018-11-01T00:30:28.267Z,0.00
2018-11-01T00:31:28.240Z,0.00
2018-11-01T00:32:28.197Z,0.00
2018-11-01T00:33:28.170Z,0.00
2018-11-01T00:34:28.166Z,0.00
2018-11-01T00:35:28.182Z,0.00
2018-11-01T00:36:28.154Z,0.00
2018-11-01T00:37:28.120Z,0.00
2018-11-01T00:38:28.115Z,0.00
2018-11-01T00:39:28.108Z,0.00
2018-11-01T00:40:28.138Z,0.00
2018-11-01T00:41:28.078Z,0.00
2018-11-01T00:42:28.082Z,0.00
2018-11-01T00:43:28.098Z,0.00
2018-11-01T00:44:28.042Z,0.00
2018-11-01T00:45:28.041Z,0.00
2018-11-01T00:46:28.027Z,0.00
2018-11-01T00:47:28.010Z,0.00
2018-11-01T00:48:27.997Z,0.00
2018-11-01T00:49:28.009Z,0.00
2018-11-01T00:50:27.996Z,0.00
2018-11-01T00:51:28.030Z,0.00
2018-11-01T00:52:27.952Z,0.00
2018-11-01T00:53:27.942Z,0.00
2018-11-01T00:54:27.932Z,0.00
2018-11-01T00:55:27.936Z,0.00
2018-11-01T00:56:27.982Z,0.00
2018-11-01T00:57:27.922Z,0.00
2018-11-01T00:58:27.934Z,0.00
2018-11-01T00:59:27.899Z,0.00
2018-11-01T01:00:27.896Z,0.00
2018-11-01T01:01:27.915Z,0.00
2018-11-01T01:02:27.848Z,0.00
2018-11-01T01:03:27.837Z,0.00
2018-11-01T01:04:27.828Z,0.00
2018-11-01T01:05:27.835Z,0.00
2018-11-01T01:06:27.840Z,0.00
2018-11-01T01:07:27.796Z,0.00
2018-11-01T01:08:27.809Z,0.00
2018-11-01T01:09:27.768Z,0.00
2018-11-01T01:10:27.765Z,0.00
2018-11-01T01:11:27.785Z,0.00
2018-11-01T01:12:27.751Z,0.00
2018-11-01T01:13:28.777Z,0.00
2018-11-01T01:14:30.581Z,0.00
2018-11-01T01:15:27.906Z,0.00
2018-11-01T01:16:28.763Z,0.00
2018-11-01T01:17:27.687Z,0.00
2018-11-01T01:18:27.681Z,0.00
2018-11-01T01:19:27.668Z,0.00
2018-11-01T01:20:27.675Z,0.00
2018-11-01T01:21:27.670Z,0.00
2018-11-01T01:22:27.648Z,0.00
2018-11-01T01:23:27.628Z,0.00
2018-11-01T01:24:27.635Z,0.00
2018-11-01T01:25:27.620Z,0.00
2018-11-01T01:26:27.798Z,0.00
2018-11-01T01:27:27.594Z,0.00
2018-11-01T01:28:27.564Z,0.00
2018-11-01T01:29:27.569Z,0.00
2018-11-01T01:30:27.544Z,0.00
2018-11-01T01:31:27.613Z,0.00
2018-11-01T01:32:27.583Z,0.00
2018-11-01T01:33:27.548Z,0.00
2018-11-01T01:34:27.604Z,0.00
2018-11-01T01:35:27.565Z,0.00
2018-11-01T01:36:27.519Z,0.00
2018-11-01T01:37:27.499Z,0.00
2018-11-01T01:38:27.487Z,0.00
2018-11-01T01:39:27.479Z,0.00
2018-11-01T01:40:27.471Z,0.00
2018-11-01T01:41:27.498Z,0.00
2018-11-01T01:42:27.465Z,0.00
2018-11-01T01:43:27.437Z,0.00
2018-11-01T01:44:27.394Z,0.00
2018-11-01T01:45:27.457Z,0.00
2018-11-01T01:46:27.408Z,0.00
2018-11-01T01:47:27.377Z,0.00
2018-11-01T01:48:27.390Z,0.00
2018-11-01T01:49:27.338Z,0.00
2018-11-01T01:50:27.432Z,0.00
2018-11-01T01:51:27.352Z,0.00
2018-11-01T01:52:27.356Z,0.00
2018-11-01T01:53:27.317Z,0.00
2018-11-01T01:54:27.341Z,0.00
2018-11-01T01:55:27.326Z,0.00
2018-11-01T01:56:27.266Z,0.00
2018-11-01T01:57:27.284Z,0.00
2018-11-01T01:58:27.258Z,0.00
2018-11-01T01:59:27.259Z,0.00
2018-11-01T02:00:27.305Z,0.00
2018-11-01T02:01:27.242Z,0.00
2018-11-01T02:02:27.257Z,0.00
2018-11-01T02:03:27.204Z,0.00
2018-11-01T02:04:27.177Z,0.00
2018-11-01T02:05:27.179Z,0.00
2018-11-01T02:06:27.190Z,0.00
2018-11-01T02:07:27.205Z,0.00
2018-11-01T02:08:27.187Z,0.00
2018-11-01T02:09:27.140Z,0.00
2018-11-01T02:10:28.013Z,0.00
2018-11-01T02:11:27.136Z,0.00
2018-11-01T02:12:27.132Z,0.00
2018-11-01T02:13:27.104Z,0.00
2018-11-01T02:14:27.072Z,0.00
2018-11-01T02:15:27.054Z,0.00
2018-11-01T02:16:27.058Z,0.00
2018-11-01T02:17:27.103Z,0.00
2018-11-01T02:18:27.080Z,0.00
2018-11-01T02:19:27.043Z,0.00
2018-11-01T02:20:27.057Z,0.00
2018-11-01T02:21:27.051Z,0.00
2018-11-01T02:22:27.014Z,0.00
2018-11-01T02:23:27.020Z,0.00
2018-11-01T02:24:27.007Z,0.00
2018-11-01T02:25:26.947Z,0.00
2018-11-01T02:26:26.944Z,0.00
2018-11-01T02:27:26.958Z,0.00
2018-11-01T02:28:26.960Z,0.00
2018-11-01T02:29:26.911Z,0.00
2018-11-01T02:30:26.908Z,0.00
2018-11-01T02:31:26.974Z,0.00
2018-11-01T02:32:26.877Z,0.00
2018-11-01T02:33:26.898Z,0.00
2018-11-01T02:34:26.879Z,0.00
2018-11-01T02:35:26.883Z,0.00
2018-11-01T02:36:26.862Z,0.00
2018-11-01T02:37:26.844Z,0.00
2018-11-01T02:38:26.895Z,0.00
2018-11-01T02:39:26.795Z,0.00
2018-11-01T02:40:26.789Z,0.00
2018-11-01T02:41:26.818Z,0.00
2018-11-01T02:42:26.791Z,0.00
2018-11-01T02:43:26.768Z,0.00
2018-11-01T02:44:26.761Z,0.00
2018-11-01T02:45:26.732Z,0.00
2018-11-01T02:46:26.779Z,0.00
2018-11-01T02:47:26.716Z,0.00
2018-11-01T02:48:26.711Z,0.00
2018-11-01T02:49:26.707Z,0.00
2018-11-01T02:50:26.685Z,0.00
2018-11-01T02:51:26.707Z,0.00
2018-11-01T02:52:26.677Z,0.00
2018-11-01T02:53:26.677Z,0.00
2018-11-01T02:54:26.633Z,0.00
2018-11-01T02:55:26.641Z,0.00
2018-11-01T02:56:26.655Z,0.00
2018-11-01T02:57:26.604Z,0.00
2018-11-01T02:58:26.614Z,0.00
2018-11-01T02:59:26.626Z,0.00
2018-11-01T03:00:26.586Z,0.00
2018-11-01T03:01:26.596Z,0.00
2018-11-01T03:02:26.549Z,0.00
2018-11-01T03:03:26.546Z,0.00
2018-11-01T03:04:26.551Z,0.00
2018-11-01T03:05:26.534Z,0.00
2018-11-01T03:06:26.557Z,0.00
2018-11-01T03:07:26.488Z,0.00
2018-11-01T03:08:26.492Z,0.00
2018-11-01T03:09:26.476Z,0.00
2018-11-01T03:10:26.461Z,0.00
2018-11-01T03:11:26.497Z,0.00
2018-11-01T03:12:26.468Z,0.00
2018-11-01T03:13:26.465Z,0.00
2018-11-01T03:14:26.429Z,0.00
2018-11-01T03:15:26.424Z,0.00
2018-11-01T03:16:26.396Z,0.00
2018-11-01T03:17:26.405Z,0.00
2018-11-01T03:18:26.429Z,0.00
2018-11-01T03:19:26.366Z,0.00
2018-11-01T03:20:26.359Z,0.00
2018-11-01T03:21:26.445Z,0.00
2018-11-01T03:22:26.341Z,0.00
2018-11-01T03:23:26.357Z,0.00
2018-11-01T03:24:26.330Z,0.00
2018-11-01T03:25:26.298Z,0.00
2018-11-01T03:26:26.402Z,0.00
2018-11-01T03:27:26.288Z,0.00
2018-11-01T03:28:26.295Z,0.00
2018-11-01T03:29:26.261Z,0.00
2018-11-01T03:30:26.257Z,0.00
2018-11-01T03:31:26.279Z,0.00
2018-11-01T03:32:26.249Z,0.00
2018-11-01T03:33:26.353Z,0.00
2018-11-01T03:34:26.257Z,0.00
2018-11-01T03:35:26.198Z,0.00
2018-11-01T03:36:26.189Z,0.00
2018-11-01T03:37:26.183Z,0.00
2018-11-01T03:38:26.371Z,0.00
2018-11-01T03:39:26.210Z,0.00
2018-11-01T03:40:26.147Z,0.00
2018-11-01T03:41:26.122Z,0.00
2018-11-01T03:42:26.151Z,0.00
2018-11-01T03:43:26.112Z,0.00
2018-11-01T03:44:26.114Z,0.00
2018-11-01T03:45:26.132Z,0.00
2018-11-01T03:46:26.116Z,0.00
2018-11-01T03:47:26.070Z,0.00
2018-11-01T03:48:26.063Z,0.00
2018-11-01T03:49:26.041Z,0.00
2018-11-01T03:50:26.081Z,0.00
2018-11-01T03:51:26.031Z,0.00
2018-11-01T03:52:26.030Z,0.00
2018-11-01T03:53:26.031Z,0.00
2018-11-01T03:54:25.997Z,0.00
2018-11-01T03:55:26.061Z,0.00
2018-11-01T03:56:25.982Z,0.00
2018-11-01T03:57:25.964Z,0.00
2018-11-01T03:58:25.944Z,0.00
2018-11-01T03:59:25.933Z,0.00
2018-11-01T04:00:25.959Z,0.00
2018-11-01T04:01:25.914Z,0.00
2018-11-01T04:02:25.936Z,0.00
2018-11-01T04:03:25.929Z,0.00
2018-11-01T04:04:25.916Z,0.00
2018-11-01T04:05:25.919Z,0.00
2018-11-01T04:06:25.860Z,0.00
2018-11-01T04:07:25.877Z,0.00
2018-11-01T04:08:25.836Z,0.00
2018-11-01T04:09:25.845Z,0.00
2018-11-01T04:10:25.859Z,0.00
2018-11-01T04:11:25.817Z,0.00
2018-11-01T04:12:25.792Z,0.00
2018-11-01T04:13:25.859Z,0.00
2018-11-01T04:14:25.796Z,0.00
2018-11-01T04:15:25.814Z,0.00
2018-11-01T04:16:25.807Z,0.00
2018-11-01T04:17:25.739Z,0.00
2018-11-01T04:18:25.737Z,0.00
2018-11-01T04:19:25.727Z,0.00
2018-11-01T04:20:25.714Z,0.00
2018-11-01T04:21:25.742Z,0.00
2018-11-01T04:22:25.703Z,0.00
2018-11-01T04:23:25.986Z,0.00
2018-11-01T04:24:25.665Z,0.00
2018-11-01T04:25:25.670Z,0.00
2018-11-01T04:26:25.654Z,0.00
2018-11-01T04:27:25.633Z,0.00
2018-11-01T04:28:25.667Z,0.00
2018-11-01T04:29:25.626Z,0.00
2018-11-01T04:30:25.597Z,0.00
2018-11-01T04:31:25.622Z,0.00
2018-11-01T04:32:25.627Z,0.00
2018-11-01T04:33:25.811Z,0.00
2018-11-01T04:34:25.559Z,0.00
2018-11-01T04:35:25.615Z,0.00
2018-11-01T04:36:25.616Z,0.00
2018-11-01T04:37:25.530Z,0.00
2018-11-01T04:38:25.560Z,0.00
2018-11-01T04:39:25.512Z,0.00
2018-11-01T04:40:25.538Z,0.00
2018-11-01T04:41:25.510Z,0.00
2018-11-01T04:42:25.478Z,0.00
2018-11-01T04:43:25.520Z,0.00
2018-11-01T04:44:25.473Z,0.00
2018-11-01T04:45:25.504Z,0.00
2018-11-01T04:46:25.486Z,0.00
2018-11-01T04:47:25.516Z,0.00
2018-11-01T04:48:25.412Z,0.00
2018-11-01T04:49:25.407Z,0.00
2018-11-01T04:50:25.434Z,0.00
2018-11-01T04:51:25.381Z,0.00
2018-11-01T04:52:25.402Z,0.00
2018-11-01T04:53:25.354Z,0.00
2018-11-01T04:54:25.340Z,0.00
2018-11-01T04:55:25.369Z,0.00
2018-11-01T04:56:25.342Z,0.00
2018-11-01T04:57:25.309Z,0.00
2018-11-01T04:58:25.344Z,0.00
2018-11-01T04:59:25.311Z,0.00
2018-11-01T05:00:25.328Z,0.00
2018-11-01T05:01:25.287Z,0.00
2018-11-01T05:02:25.278Z,0.00
2018-11-01T05:03:25.275Z,0.00
2018-11-01T05:04:25.260Z,0.00
2018-11-01T05:05:25.271Z,0.00
2018-11-01T05:06:25.223Z,0.00
2018-11-01T05:07:25.257Z,0.00
2018-11-01T05:08:25.220Z,0.00
2018-11-01T05:09:25.189Z,0.00
2018-11-01T05:10:25.171Z,0.00
2018-11-01T05:11:25.167Z,0.00
2018-11-01T05:12:25.218Z,0.00
2018-11-01T05:13:25.152Z,0.00
2018-11-01T05:14:25.139Z,0.00
2018-11-01T05:15:25.244Z,0.00
2018-11-01T05:16:25.116Z,0.00
2018-11-01T05:17:25.132Z,0.00
2018-11-01T05:18:25.085Z,0.00
2018-11-01T05:19:25.085Z,0.00
2018-11-01T05:20:25.123Z,0.00
2018-11-01T05:21:25.078Z,0.00
2018-11-01T05:22:25.058Z,0.00
2018-11-01T05:23:25.060Z,0.00
2018-11-01T05:24:25.055Z,0.00
2018-11-01T05:25:25.004Z,0.00
2018-11-01T05:26:24.994Z,0.00
2018-11-01T05:27:25.205Z,0.00
2018-11-01T05:28:31.958Z,0.00
2018-11-01T05:29:25.230Z,0.00
2018-11-01T05:30:25.066Z,0.00
2018-11-01T05:31:25.030Z,0.00
2018-11-01T05:32:24.963Z,0.00
2018-11-01T05:33:24.980Z,0.00
2018-11-01T05:34:25.022Z,0.00
2018-11-01T05:35:24.959Z,0.00
2018-11-01T05:36:25.007Z,0.00
2018-11-01T05:37:24.879Z,0.00
2018-11-01T05:38:24.868Z,0.00
2018-11-01T05:39:24.861Z,0.00
2018-11-01T05:40:24.849Z,0.00
2018-11-01T05:41:24.872Z,0.00
2018-11-01T05:42:24.854Z,0.00
2018-11-01T05:43:24.845Z,0.00
2018-11-01T05:44:24.827Z,0.00
2018-11-01T05:45:24.832Z,0.00
2018-11-01T05:46:24.850Z,0.00
2018-11-01T05:47:24.817Z,0.00
2018-11-01T05:48:24.784Z,0.00
2018-11-01T05:49:24.745Z,0.00
2018-11-01T05:50:24.751Z,0.00
2018-11-01T05:51:24.736Z,0.00
2018-11-01T05:52:24.756Z,0.00
2018-11-01T05:53:24.716Z,0.00
2018-11-01T05:54:24.724Z,0.00
2018-11-01T05:55:24.685Z,0.00
2018-11-01T05:56:24.684Z,0.00
2018-11-01T05:57:35.285Z,0.00
2018-11-01T05:58:25.881Z,0.00
2018-11-01T05:59:24.647Z,0.00
2018-11-01T06:00:24.651Z,0.00
2018-11-01T06:01:24.651Z,0.00
2018-11-01T06:02:24.620Z,0.00
2018-11-01T06:03:24.642Z,0.00
2018-11-01T06:04:24.583Z,0.00
2018-11-01T06:05:24.597Z,0.00
2018-11-01T06:06:24.612Z,0.00
2018-11-01T06:07:24.554Z,0.00
2018-11-01T06:08:24.578Z,0.00
2018-11-01T06:09:24.535Z,0.00
2018-11-01T06:10:33.195Z,0.00
2018-11-01T06:11:36.144Z,0.00
2018-11-01T06:12:33.864Z,0.00
2018-11-01T06:13:24.564Z,0.00
2018-11-01T06:14:37.394Z,5.62
2018-11-01T06:15:33.333Z,5.62
2018-11-01T06:16:42.890Z,5.62
2018-11-01T06:18:45.583Z,5.62
2018-11-01T06:19:46.171Z,5.62
2018-11-01T06:20:45.232Z,5.62
2018-11-01T06:21:45.053Z,5.62
2018-11-01T06:22:45.010Z,5.62
2018-11-01T06:23:45.044Z,5.62
2018-11-01T06:24:45.046Z,5.62
2018-11-01T06:25:44.987Z,5.62
2018-11-01T06:26:44.991Z,5.62
2018-11-01T06:27:44.955Z,5.62
2018-11-01T06:28:44.991Z,5.62
2018-11-01T06:29:45.004Z,5.62
2018-11-01T06:30:44.971Z,5.62
2018-11-01T06:31:44.931Z,5.62
2018-11-01T06:32:44.947Z,5.62
2018-11-01T06:33:44.899Z,5.62
2018-11-01T06:34:44.882Z,11.25
2018-11-01T06:35:44.930Z,11.25
2018-11-01T06:36:44.867Z,11.25
2018-11-01T06:37:44.902Z,11.25
2018-11-01T06:38:44.857Z,11.25
2018-11-01T06:39:44.826Z,11.25
2018-11-01T06:40:44.848Z,11.25
2018-11-01T06:41:44.842Z,16.88
2018-11-01T06:42:44.856Z,16.88
2018-11-01T06:43:44.790Z,16.88
2018-11-01T06:44:44.971Z,16.88
2018-11-01T06:45:44.833Z,16.88
2018-11-01T06:46:44.807Z,16.88
2018-11-01T06:47:44.836Z,16.88
2018-11-01T06:48:44.904Z,16.88
2018-11-01T06:49:44.763Z,16.88
2018-11-01T06:50:44.718Z,22.50
2018-11-01T06:51:44.725Z,22.50
2018-11-01T06:52:44.687Z,22.50
2018-11-01T06:53:44.758Z,22.50
2018-11-01T06:54:44.900Z,22.50
2018-11-01T06:55:44.687Z,22.50
2018-11-01T06:56:44.660Z,28.12
2018-11-01T06:57:44.645Z,28.12
2018-11-01T06:58:44.771Z,28.12
2018-11-01T06:59:44.660Z,22.50
2018-11-01T07:00:44.604Z,22.50
2018-11-01T07:01:44.633Z,22.50
2018-11-01T07:02:44.577Z,22.50
2018-11-01T07:03:44.650Z,22.50
2018-11-01T07:04:44.614Z,22.50
2018-11-01T07:05:44.640Z,22.50
2018-11-01T07:06:44.551Z,22.50
2018-11-01T07:07:44.523Z,22.50
2018-11-01T07:08:44.569Z,22.50
2018-11-01T07:09:44.560Z,28.12
2018-11-01T07:10:44.572Z,22.50
2018-11-01T07:11:44.505Z,22.50
2018-11-01T07:12:44.493Z,22.50
2018-11-01T07:13:44.463Z,22.50
2018-11-01T07:14:44.535Z,22.50
2018-11-01T07:15:44.445Z,22.50
2018-11-01T07:16:44.434Z,28.12
2018-11-01T07:17:44.617Z,28.12
2018-11-01T07:18:44.456Z,28.12
2018-11-01T07:19:44.485Z,28.12
2018-11-01T07:20:44.913Z,28.12
2018-11-01T07:21:44.425Z,28.12
2018-11-01T07:22:44.366Z,28.12
2018-11-01T07:23:44.354Z,28.12
2018-11-01T07:24:44.457Z,28.12
2018-11-01T07:25:44.415Z,28.12
2018-11-01T07:26:44.469Z,28.12
2018-11-01T07:27:44.343Z,33.75
2018-11-01T07:28:44.363Z,33.75
2018-11-01T07:29:44.406Z,39.38
2018-11-01T07:30:44.308Z,39.38
2018-11-01T07:31:44.328Z,39.38
2018-11-01T07:32:44.385Z,39.38
2018-11-01T07:33:44.253Z,39.38
2018-11-01T07:34:44.319Z,45.00
2018-11-01T07:35:44.254Z,45.00
2018-11-01T07:36:44.280Z,45.00
2018-11-01T07:37:44.218Z,45.00
2018-11-01T07:38:44.375Z,45.00
2018-11-01T07:39:44.271Z,45.00
2018-11-01T07:40:44.199Z,45.00
2018-11-01T07:41:44.211Z,39.38
2018-11-01T07:42:44.160Z,39.38
2018-11-01T07:43:44.174Z,39.38
2018-11-01T07:44:44.137Z,45.00
2018-11-01T07:45:44.158Z,45.00
2018-11-01T07:46:44.170Z,45.00
2018-11-01T07:47:44.111Z,45.00
2018-11-01T07:48:44.928Z,50.62
2018-11-01T07:49:44.336Z,50.62
2018-11-01T07:50:44.105Z,50.62
2018-11-01T07:51:44.201Z,50.62
2018-11-01T07:52:44.081Z,50.62
2018-11-01T07:53:44.042Z,56.25
2018-11-01T07:54:44.056Z,61.88
2018-11-01T07:55:44.026Z,67.50
2018-11-01T07:56:44.061Z,67.50
2018-11-01T07:57:44.046Z,67.50
2018-11-01T07:58:43.986Z,67.50
2018-11-01T07:59:44.026Z,67.50
2018-11-01T08:00:44.079Z,73.12
2018-11-01T08:01:44.026Z,73.12
2018-11-01T08:02:44.435Z,73.12
2018-11-01T08:03:43.980Z,73.12
2018-11-01T08:04:43.967Z,67.50
2018-11-01T08:05:44.208Z,67.50
2018-11-01T08:06:44.929Z,61.88
2018-11-01T08:07:43.970Z,67.50
2018-11-01T08:08:44.029Z,73.12
2018-11-01T08:09:43.904Z,73.12
2018-11-01T08:10:43.862Z,73.12
2018-11-01T08:11:43.983Z,73.12
2018-11-01T08:12:43.884Z,78.75
2018-11-01T08:13:43.833Z,78.75
2018-11-01T08:14:43.895Z,78.75
2018-11-01T08:15:43.814Z,73.12
2018-11-01T08:16:43.794Z,67.50
2018-11-01T08:17:43.783Z,67.50
2018-11-01T08:18:43.776Z,67.50
2018-11-01T08:19:43.998Z,73.12
2018-11-01T08:20:43.900Z,73.12
2018-11-01T08:21:43.774Z,67.50
2018-11-01T08:22:43.730Z,67.50
2018-11-01T08:23:43.755Z,67.50
2018-11-01T08:24:43.896Z,67.50
2018-11-01T08:25:43.745Z,67.50
2018-11-01T08:26:43.679Z,67.50
2018-11-01T08:27:43.800Z,67.50
2018-11-01T08:28:43.665Z,67.50
2018-11-01T08:29:43.769Z,67.50
2018-11-01T08:30:43.673Z,67.50
2018-11-01T08:31:43.626Z,67.50
2018-11-01T08:32:43.622Z,73.12
2018-11-01T08:33:43.611Z,78.75
2018-11-01T08:34:43.700Z,90.00
2018-11-01T08:35:43.867Z,95.62
2018-11-01T08:36:43.634Z,101.25
2018-11-01T08:37:43.587Z,112.50
2018-11-01T08:38:43.562Z,123.75
2018-11-01T08:39:43.581Z,146.25
2018-11-01T08:40:43.530Z,157.50
2018-11-01T08:41:43.571Z,168.75
2018-11-01T08:42:43.503Z,163.12
2018-11-01T08:43:43.502Z,157.50
2018-11-01T08:44:43.542Z,157.50
2018-11-01T08:45:43.609Z,163.12
2018-11-01T08:46:43.469Z,180.00
2018-11-01T08:47:43.452Z,208.12
2018-11-01T08:48:43.462Z,241.88
2018-11-01T08:49:43.439Z,264.38
2018-11-01T08:50:43.507Z,315.00
2018-11-01T08:51:43.592Z,388.12
2018-11-01T08:52:43.467Z,438.75
2018-11-01T08:53:43.397Z,438.75
2018-11-01T08:54:43.374Z,433.12
2018-11-01T08:55:43.413Z,393.75
2018-11-01T08:56:43.407Z,376.88
2018-11-01T08:57:43.888Z,365.62
2018-11-01T08:58:43.347Z,360.00
2018-11-01T08:59:43.371Z,376.88
2018-11-01T09:00:43.370Z,360.00
2018-11-01T09:01:43.322Z,331.88
2018-11-01T09:02:43.342Z,315.00
2018-11-01T09:03:43.283Z,315.00
2018-11-01T09:04:43.321Z,292.50
2018-11-01T09:05:43.304Z,292.50
2018-11-01T09:06:43.313Z,303.75
2018-11-01T09:07:43.460Z,315.00
2018-11-01T09:08:43.254Z,382.50
2018-11-01T09:09:43.223Z,506.25
2018-11-01T09:10:43.240Z,607.50
2018-11-01T09:11:43.242Z,720.00
2018-11-01T09:12:43.271Z,765.00
2018-11-01T09:13:43.210Z,708.75
2018-11-01T09:14:43.198Z,624.38
2018-11-01T09:15:43.251Z,613.12
2018-11-01T09:16:43.147Z,652.50
2018-11-01T09:17:43.195Z,680.62
2018-11-01T09:18:43.152Z,691.88
2018-11-01T09:19:43.146Z,776.25
2018-11-01T09:20:43.198Z,708.75
2018-11-01T09:21:43.092Z,770.62
2018-11-01T09:22:43.119Z,843.75
2018-11-01T09:23:43.074Z,900.00
2018-11-01T09:24:43.077Z,973.12
2018-11-01T09:25:43.135Z,933.75
2018-11-01T09:26:43.083Z,1012.50
2018-11-01T09:27:43.021Z,1023.75
2018-11-01T09:28:43.008Z,826.88
2018-11-01T09:29:43.057Z,956.25
2018-11-01T09:30:43.051Z,1102.50
2018-11-01T09:31:42.999Z,1113.75
2018-11-01T09:32:43.050Z,1136.25
2018-11-01T09:33:43.001Z,1158.75
2018-11-01T09:34:42.999Z,1248.75
2018-11-01T09:35:43.429Z,1046.25
2018-11-01T09:36:42.946Z,933.75
2018-11-01T09:37:42.972Z,860.62
2018-11-01T09:38:42.959Z,787.50
2018-11-01T09:39:42.895Z,720.00
2018-11-01T09:40:42.943Z,675.00
2018-11-01T09:41:42.893Z,658.12
2018-11-01T09:42:42.869Z,635.62
2018-11-01T09:43:42.891Z,607.50
2018-11-01T09:44:42.835Z,573.75
2018-11-01T09:45:42.881Z,528.75
2018-11-01T09:46:43.254Z,489.38
2018-11-01T09:47:43.190Z,472.50
2018-11-01T09:48:42.862Z,472.50
2018-11-01T09:49:42.785Z,528.75
2018-11-01T09:50:42.816Z,613.12
2018-11-01T09:51:42.770Z,691.88
2018-11-01T09:52:42.786Z,725.62
2018-11-01T09:53:42.755Z,703.12
2018-11-01T09:54:42.732Z,607.50
2018-11-01T09:55:42.936Z,489.38
2018-11-01T09:56:42.712Z,450.00
2018-11-01T09:57:42.717Z,478.12
2018-11-01T09:58:42.692Z,534.38
2018-11-01T09:59:42.685Z,573.75
2018-11-01T10:00:42.757Z,652.50
2018-11-01T10:01:42.662Z,720.00
2018-11-01T10:02:42.647Z,697.50
2018-11-01T10:03:42.636Z,624.38
2018-11-01T10:04:42.632Z,613.12
2018-11-01T10:05:42.732Z,624.38
2018-11-01T10:06:42.860Z,601.88
2018-11-01T10:07:42.596Z,551.25
2018-11-01T10:08:42.577Z,517.50
2018-11-01T10:09:42.590Z,466.88
2018-11-01T10:10:42.930Z,455.62
2018-11-01T10:11:43.672Z,466.88
2018-11-01T10:12:42.629Z,466.88
2018-11-01T10:13:42.540Z,483.75
2018-11-01T10:14:42.541Z,466.88
2018-11-01T10:15:42.838Z,405.00
2018-11-01T10:16:42.793Z,371.25
2018-11-01T10:17:43.015Z,371.25
2018-11-01T10:18:42.484Z,421.88
2018-11-01T10:19:42.468Z,511.88
2018-11-01T10:20:42.529Z,630.00
2018-11-01T10:21:42.504Z,680.62
2018-11-01T10:22:42.601Z,669.38
2018-11-01T10:23:42.450Z,686.25
2018-11-01T10:24:42.407Z,669.38
2018-11-01T10:25:42.466Z,579.38
2018-11-01T10:26:42.853Z,551.25
2018-11-01T10:27:42.475Z,590.62
2018-11-01T10:28:42.375Z,624.38
2018-11-01T10:29:42.357Z,624.38
2018-11-01T10:30:42.374Z,641.25
2018-11-01T10:31:42.367Z,680.62
2018-11-01T10:32:42.371Z,663.75
2018-11-01T10:33:42.381Z,540.00
2018-11-01T10:34:42.317Z,455.62
2018-11-01T10:35:42.295Z,410.62
2018-11-01T10:36:42.387Z,399.38
2018-11-01T10:37:42.267Z,416.25
2018-11-01T10:38:42.264Z,444.38
2018-11-01T10:39:42.305Z,506.25
2018-11-01T10:40:42.316Z,573.75
2018-11-01T10:41:42.274Z,618.75
2018-11-01T10:42:42.233Z,669.38
2018-11-01T10:43:42.205Z,720.00
2018-11-01T10:44:42.256Z,753.75
2018-11-01T10:45:42.218Z,781.88
2018-11-01T10:46:42.207Z,843.75
2018-11-01T10:47:42.350Z,933.75
2018-11-01T10:48:42.153Z,1063.12
2018-11-01T10:49:42.192Z,1170.00
2018-11-01T10:50:42.153Z,1012.50
2018-11-01T10:51:42.153Z,1001.25
2018-11-01T10:52:42.105Z,1293.75
2018-11-01T10:53:42.275Z,1153.12
2018-11-01T10:54:42.240Z,911.25
2018-11-01T10:55:42.080Z,1558.12
2018-11-01T10:56:42.108Z,1428.75
2018-11-01T10:57:42.088Z,1108.12
2018-11-01T10:58:42.101Z,1125.00
2018-11-01T10:59:42.064Z,1715.62
2018-11-01T11:00:42.105Z,2165.62
2018-11-01T11:01:42.065Z,1620.00
2018-11-01T11:02:42.018Z,1777.50
2018-11-01T11:03:42.054Z,1462.50
2018-11-01T11:04:42.003Z,1456.88
2018-11-01T11:05:42.015Z,1620.00
2018-11-01T11:06:42.851Z,1496.25
2018-11-01T11:07:41.993Z,1445.62
2018-11-01T11:08:41.936Z,1428.75
2018-11-01T11:09:41.970Z,1597.50
2018-11-01T11:10:42.336Z,1141.88
2018-11-01T11:11:41.914Z,1423.12
2018-11-01T11:12:41.891Z,1726.88
2018-11-01T11:13:42.098Z,1198.12
2018-11-01T11:14:42.071Z,950.62
2018-11-01T11:15:41.858Z,1215.00
2018-11-01T11:16:41.910Z,1395.00
2018-11-01T11:17:41.850Z,871.88
2018-11-01T11:18:41.909Z,663.75
2018-11-01T11:19:41.837Z,765.00
2018-11-01T11:20:42.192Z,1136.25
2018-11-01T11:21:42.328Z,2120.62
2018-11-01T11:22:41.816Z,2272.50
2018-11-01T11:23:41.769Z,2576.25
2018-11-01T11:24:41.798Z,2581.88
2018-11-01T11:25:41.827Z,2351.25
2018-11-01T11:26:41.811Z,2368.12
2018-11-01T11:27:41.745Z,2486.25
2018-11-01T11:28:41.738Z,2700.00
2018-11-01T11:29:41.717Z,2041.88
2018-11-01T11:30:41.993Z,2075.62
2018-11-01T11:31:41.739Z,2188.12
2018-11-01T11:32:41.670Z,1485.00
2018-11-01T11:33:41.673Z,1935.00
2018-11-01T11:34:41.719Z,2216.25
2018-11-01T11:35:41.745Z,2401.88
2018-11-01T11:36:41.635Z,2851.88
2018-11-01T11:37:41.659Z,2891.25
2018-11-01T11:38:41.631Z,2958.75
2018-11-01T11:39:41.750Z,1119.38
2018-11-01T11:40:41.606Z,804.38
2018-11-01T11:41:41.571Z,1046.25
2018-11-01T11:42:41.612Z,1816.88
2018-11-01T11:43:41.559Z,1845.00
2018-11-01T11:44:41.674Z,1428.75
2018-11-01T11:45:41.565Z,1299.38
2018-11-01T11:46:41.539Z,1563.75
2018-11-01T11:47:41.546Z,765.00
2018-11-01T11:48:41.499Z,680.62
2018-11-01T11:49:41.538Z,866.25
2018-11-01T11:50:41.493Z,883.12
2018-11-01T11:51:41.545Z,781.88
2018-11-01T11:52:41.643Z,1018.12
2018-11-01T11:53:41.484Z,1119.38
2018-11-01T11:54:41.448Z,1254.38
2018-11-01T11:55:41.459Z,1237.50
2018-11-01T11:56:41.435Z,1209.38
2018-11-01T11:57:41.517Z,990.00
2018-11-01T11:58:41.438Z,1085.62
2018-11-01T11:59:41.444Z,1372.50
2018-11-01T12:00:41.391Z,1350.00
2018-11-01T12:01:41.381Z,1170.00
2018-11-01T12:02:41.489Z,821.25
2018-11-01T12:03:41.818Z,596.25
2018-11-01T12:04:41.359Z,748.12
2018-11-01T12:05:41.405Z,2148.75
2018-11-01T12:06:41.335Z,2643.75
2018-11-01T12:07:41.342Z,2413.12
2018-11-01T12:08:41.330Z,624.38
2018-11-01T12:09:41.277Z,1068.75
2018-11-01T12:10:41.308Z,1226.25
2018-11-01T12:11:41.277Z,2154.38
2018-11-01T12:12:41.294Z,2041.88
2018-11-01T12:13:41.239Z,2165.62
2018-11-01T12:14:41.266Z,3071.25
2018-11-01T12:15:41.321Z,2739.38
2018-11-01T12:16:41.220Z,1001.25
2018-11-01T12:17:41.190Z,1080.00
2018-11-01T12:18:41.250Z,1485.00
2018-11-01T12:19:41.175Z,1895.62
2018-11-01T12:20:41.250Z,916.88
2018-11-01T12:21:41.141Z,2514.38
2018-11-01T12:22:41.156Z,2705.62
2018-11-01T12:23:41.148Z,2829.38
2018-11-01T12:24:41.122Z,2947.50
2018-11-01T12:25:41.304Z,2570.62
2018-11-01T12:26:41.101Z,2401.88
2018-11-01T12:27:41.092Z,2137.50
2018-11-01T12:28:41.204Z,2295.00
2018-11-01T12:29:41.064Z,2655.00
2018-11-01T12:30:41.167Z,2480.62
2018-11-01T12:31:41.042Z,2469.38
2018-11-01T12:32:41.040Z,2019.38
2018-11-01T12:33:41.078Z,2311.88
2018-11-01T12:34:41.007Z,2143.12
2018-11-01T12:35:41.537Z,1704.38
2018-11-01T12:36:41.017Z,1080.00
2018-11-01T12:37:40.985Z,1164.38
2018-11-01T12:38:40.959Z,1383.75
2018-11-01T12:39:40.985Z,1777.50
2018-11-01T12:40:41.009Z,1591.88
2018-11-01T12:41:41.170Z,1856.25
2018-11-01T12:42:40.990Z,1946.25
2018-11-01T12:43:40.930Z,1445.62
2018-11-01T12:44:40.927Z,1456.88
2018-11-01T12:45:40.941Z,1423.12
2018-11-01T12:46:40.942Z,1845.00
2018-11-01T12:47:40.865Z,2317.50
2018-11-01T12:48:40.865Z,1890.00
2018-11-01T12:49:40.935Z,1940.62
2018-11-01T12:50:40.874Z,2053.12
2018-11-01T12:51:40.882Z,1890.00
2018-11-01T12:52:40.821Z,2064.38
2018-11-01T12:53:40.821Z,1338.75
2018-11-01T12:54:40.802Z,1231.88